Time,TemperatureF,DewpointF,PressureIn,WindDirection,WindDirectionDegrees,WindSpeedMPH,WindSpeedGustMPH,Humidity,HourlyPrecipIn,Conditions,Clouds,dailyrainin,SoftwareType,DateUTC
2013-04-07 00:02:00,34.0,30.0,-100.00,SSW,212,18.0,25.0,84,0.00,,,-99.99,,2013-04-07 06:02:00,
2013-04-07 00:12:00,34.0,30.0,-100.00,SSW,213,17.0,25.0,84,0.00,,,-99.99,,2013-04-07 06:12:00,
2013-04-07 00:22:00,34.0,30.0,-100.00,SSW,209,12.0,16.0,84,0.00,,,-99.99,,2013-04-07 06:22:00,
2013-04-07 00:32:00,35.0,29.0,-100.00,SSW,199,14.0,21.0,82,0.00,,,-99.99,,2013-04-07 06:32:00,
2013-04-07 00:42:00,35.0,29.0,-100.00,SSW,205,16.0,22.0,81,0.00,,,-99.99,,2013-04-07 06:42:00,
2013-04-07 00:52:00,34.0,30.0,-100.00,SW,223,14.0,19.0,83,0.00,,,-99.99,,2013-04-07 06:52:00,
2013-04-07 01:02:00,34.0,30.0,-100.00,SW,224,14.0,20.0,83,0.00,,,-99.99,,2013-04-07 07:02:00,
2013-04-07 01:12:00,34.0,30.0,-100.00,SW,229,14.0,21.0,83,0.00,,,-99.99,,2013-04-07 07:12:00,
2013-04-07 01:22:00,34.0,30.0,-100.00,SW,233,16.0,24.0,82,0.00,,,-99.99,,2013-04-07 07:22:00,
2013-04-07 01:32:00,34.0,29.0,-100.00,SW,229,17.0,26.0,82,0.00,,,-99.99,,2013-04-07 07:32:00,
2013-04-07 01:42:00,34.0,29.0,-100.00,SW,226,19.0,26.0,82,0.00,,,-99.99,,2013-04-07 07:42:00,
2013-04-07 01:52:00,34.0,29.0,-100.00,SW,222,22.0,27.0,83,0.00,,,-99.99,,2013-04-07 07:52:00,
2013-04-07 02:02:00,34.0,29.0,-100.00,SW,220,21.0,29.0,84,0.00,,,-99.99,,2013-04-07 08:02:00,
2013-04-07 02:12:00,34.0,29.0,-100.00,SW,216,21.0,30.0,81,0.00,,,-99.99,,2013-04-07 08:12:00,
2013-04-07 02:22:00,34.0,29.0,-100.00,SW,216,24.0,29.0,82,0.00,,,-99.99,,2013-04-07 08:22:00,
2013-04-07 02:32:00,34.0,29.0,-100.00,SW,216,22.0,29.0,81,0.00,,,-99.99,,2013-04-07 08:32:00,
2013-04-07 02:42:00,34.0,29.0,-100.00,SW,217,21.0,27.0,81,0.00,,,-99.99,,2013-04-07 08:42:00,
2013-04-07 02:52:00,33.0,28.0,-100.00,SW,217,21.0,27.0,82,0.00,,,-99.99,,2013-04-07 08:52:00,
2013-04-07 03:02:00,33.0,28.0,-100.00,SW,223,22.0,28.0,82,0.00,,,-99.99,,2013-04-07 09:02:00,
2013-04-07 03:12:00,33.0,28.0,-100.00,SW,226,22.0,28.0,82,0.00,,,-99.99,,2013-04-07 09:12:00,
2013-04-07 03:22:00,33.0,28.0,-100.00,SW,229,25.0,34.0,81,0.00,,,-99.99,,2013-04-07 09:22:00,
2013-04-07 03:33:00,33.0,28.0,-100.00,SW,230,26.0,32.0,80,0.00,,,-99.99,,2013-04-07 09:33:00,
2013-04-07 03:43:00,34.0,27.0,-100.00,SW,230,27.0,32.0,78,0.00,,,-99.99,,2013-04-07 09:43:00,
2013-04-07 03:53:00,33.0,27.0,-100.00,SW,229,28.0,37.0,78,0.00,,,-99.99,,2013-04-07 09:53:00,
2013-04-07 04:03:00,34.0,27.0,-100.00,SW,232,28.0,37.0,76,0.00,,,-99.99,,2013-04-07 10:03:00,
2013-04-07 04:13:00,34.0,27.0,-100.00,SW,233,31.0,45.0,76,0.00,,,-99.99,,2013-04-07 10:13:00,
2013-04-07 04:22:00,34.0,28.0,-100.00,SW,232,29.0,38.0,78,0.00,,,-99.99,,2013-04-07 10:22:00,
2013-04-07 04:33:00,34.0,28.0,-100.00,SW,234,30.0,39.0,78,0.00,,,-99.99,,2013-04-07 10:33:00,
2013-04-07 04:42:00,34.0,28.0,-100.00,SW,233,27.0,34.0,78,0.00,,,-99.99,,2013-04-07 10:42:00,
2013-04-07 04:52:00,34.0,28.0,-100.00,SW,232,26.0,33.0,77,0.00,,,-99.99,,2013-04-07 10:52:00,
2013-04-07 05:03:00,34.0,28.0,-100.00,SW,229,23.0,30.0,78,0.00,,,-99.99,,2013-04-07 11:03:00,
2013-04-07 05:12:00,34.0,27.0,-100.00,SW,227,23.0,31.0,76,0.00,,,-99.99,,2013-04-07 11:12:00,
2013-04-07 05:22:00,34.0,27.0,-100.00,SW,230,21.0,34.0,75,0.00,,,-99.99,,2013-04-07 11:22:00,
2013-04-07 05:32:00,34.0,28.0,-100.00,SW,233,18.0,26.0,77,0.00,,,-99.99,,2013-04-07 11:32:00,
2013-04-07 05:42:00,34.0,28.0,-100.00,SW,229,16.0,21.0,78,0.00,,,-99.99,,2013-04-07 11:42:00,
2013-04-07 05:52:00,33.0,28.0,-100.00,SW,222,21.0,29.0,80,0.01,,,-99.99,,2013-04-07 11:52:00,
2013-04-07 06:02:00,33.0,29.0,-100.00,SW,217,22.0,30.0,85,0.01,,,-99.99,,2013-04-07 12:02:00,
2013-04-07 06:12:00,33.0,29.0,-100.00,SW,215,21.0,27.0,85,0.01,,,-99.99,,2013-04-07 12:12:00,
2013-04-07 06:22:00,33.0,27.0,-100.00,SSW,209,22.0,30.0,80,0.00,,,-99.99,,2013-04-07 12:22:00,
2013-04-07 06:34:00,33.0,27.0,-100.00,SSW,206,21.0,29.0,79,0.00,,,-99.99,,2013-04-07 12:34:00,
2013-04-07 06:42:00,33.0,27.0,-100.00,SSW,209,21.0,27.0,77,0.00,,,-99.99,,2013-04-07 12:42:00,
2013-04-07 06:53:00,33.0,26.0,-100.00,SSW,213,18.0,24.0,73,0.00,,,-99.99,,2013-04-07 12:53:00,
2013-04-07 07:03:00,33.0,25.0,-100.00,SSW,212,19.0,27.0,70,0.00,,,-99.99,,2013-04-07 13:03:00,
2013-04-07 07:13:00,33.0,25.0,-100.00,SSW,213,17.0,24.0,69,0.00,,,-99.99,,2013-04-07 13:13:00,
2013-04-07 07:22:00,33.0,24.0,-100.00,SSW,213,14.0,20.0,69,0.00,,,-99.99,,2013-04-07 13:22:00,
2013-04-07 07:32:00,34.0,24.0,-100.00,SSW,203,17.0,24.0,66,0.00,,,-99.99,,2013-04-07 13:32:00,
2013-04-07 07:42:00,34.0,24.0,-100.00,SSW,198,20.0,28.0,66,0.00,,,-99.99,,2013-04-07 13:42:00,
2013-04-07 07:52:00,35.0,24.0,-100.00,SSW,202,22.0,32.0,65,0.00,,,-99.99,,2013-04-07 13:52:00,
2013-04-07 08:02:00,35.0,24.0,-100.00,SSW,203,24.0,37.0,65,0.00,,,-99.99,,2013-04-07 14:02:00,
2013-04-07 08:12:00,35.0,24.0,-100.00,SSW,205,24.0,37.0,65,0.00,,,-99.99,,2013-04-07 14:12:00,
2013-04-07 08:23:00,36.0,24.0,-100.00,SSW,208,26.0,35.0,62,0.00,,,-99.99,,2013-04-07 14:23:00,
2013-04-07 08:32:00,36.0,24.0,-100.00,SSW,212,26.0,35.0,63,0.00,,,-99.99,,2013-04-07 14:32:00,
2013-04-07 08:43:00,36.0,24.0,-100.00,SSW,212,22.0,29.0,60,0.00,,,-99.99,,2013-04-07 14:43:00,
2013-04-07 08:53:00,37.0,25.0,-100.00,SSW,213,22.0,31.0,61,0.00,,,-99.99,,2013-04-07 14:53:00,
2013-04-07 09:03:00,37.0,24.0,-100.00,SSW,213,23.0,34.0,58,0.00,,,-99.99,,2013-04-07 15:03:00,
2013-04-07 09:12:00,37.0,24.0,-100.00,SSW,213,27.0,35.0,60,0.00,,,-99.99,,2013-04-07 15:12:00,
2013-04-07 09:22:00,37.0,24.0,-100.00,SSW,212,28.0,35.0,60,0.00,,,-99.99,,2013-04-07 15:22:00,
2013-04-07 09:34:00,37.0,24.0,-100.00,SSW,213,25.0,34.0,59,0.00,,,-99.99,,2013-04-07 15:34:00,
2013-04-07 09:43:00,38.0,24.0,-100.00,SSW,209,26.0,34.0,58,0.00,,,-99.99,,2013-04-07 15:43:00,
2013-04-07 09:53:00,39.0,26.0,-100.00,SSW,213,24.0,32.0,59,0.00,,,-99.99,,2013-04-07 15:53:00,
2013-04-07 10:03:00,38.0,25.0,-100.00,SW,219,24.0,35.0,58,0.00,,,-99.99,,2013-04-07 16:03:00,
2013-04-07 10:13:00,38.0,24.0,-100.00,SW,222,26.0,35.0,56,0.00,,,-99.99,,2013-04-07 16:13:00,
2013-04-07 10:24:00,39.0,23.0,-100.00,SW,223,23.0,32.0,53,0.00,,,-99.99,,2013-04-07 16:24:00,
2013-04-07 10:33:00,40.0,23.0,-100.00,SW,232,20.0,27.0,51,0.00,,,-99.99,,2013-04-07 16:33:00,
2013-04-07 10:42:00,40.0,22.0,-100.00,SW,234,21.0,30.0,47,0.00,,,-99.99,,2013-04-07 16:42:00,
2013-04-07 10:53:00,39.0,22.0,-100.00,SW,234,24.0,32.0,50,0.00,,,-99.99,,2013-04-07 16:53:00,
2013-04-07 11:04:00,40.0,22.0,-100.00,WSW,239,21.0,32.0,47,0.00,,,-99.99,,2013-04-07 17:04:00,
2013-04-07 11:13:00,40.0,22.0,-100.00,WSW,241,27.0,37.0,48,0.00,,,-99.99,,2013-04-07 17:13:00,
2013-04-07 11:23:00,41.0,20.0,-100.00,WSW,243,27.0,36.0,43,0.00,,,-99.99,,2013-04-07 17:23:00,
2013-04-07 11:33:00,42.0,23.0,-100.00,SW,234,30.0,40.0,46,0.00,,,-99.99,,2013-04-07 17:33:00,
2013-04-07 11:43:00,43.0,22.0,-100.00,SW,234,29.0,38.0,43,0.00,,,-99.99,,2013-04-07 17:43:00,
2013-04-07 11:52:00,42.0,20.0,-100.00,SW,233,30.0,42.0,42,0.00,,,-99.99,,2013-04-07 17:52:00,
2013-04-07 12:02:00,43.0,20.0,-100.00,WSW,239,30.0,40.0,41,0.00,,,-99.99,,2013-04-07 18:02:00,
2013-04-07 12:13:00,43.0,20.0,-100.00,WSW,237,31.0,40.0,41,0.00,,,-99.99,,2013-04-07 18:13:00,
2013-04-07 12:23:00,44.0,21.0,-100.00,SW,232,29.0,41.0,40,0.00,,,-99.99,,2013-04-07 18:23:00,
2013-04-07 12:32:00,43.0,21.0,-100.00,SW,233,35.0,44.0,41,0.00,,,-99.99,,2013-04-07 18:32:00,
2013-04-07 12:42:00,44.0,20.0,-100.00,SW,230,33.0,45.0,38,0.00,,,-99.99,,2013-04-07 18:42:00,
2013-04-07 12:52:00,41.0,26.0,-100.00,SW,227,34.0,46.0,54,0.00,,,-99.99,,2013-04-07 18:52:00,
2013-04-07 13:02:00,42.0,24.0,-100.00,SW,232,32.0,43.0,48,0.00,,,-99.99,,2013-04-07 19:02:00,
2013-04-07 13:12:00,42.0,29.0,-100.00,SW,232,32.0,43.0,58,0.00,,,-99.99,,2013-04-07 19:12:00,
2013-04-07 13:22:00,41.0,26.0,-100.00,SW,222,34.0,45.0,55,0.00,,,-99.99,,2013-04-07 19:22:00,
2013-04-07 13:32:00,42.0,27.0,-100.00,SSW,212,32.0,40.0,57,0.00,,,-99.99,,2013-04-07 19:32:00,
2013-04-07 13:42:00,38.0,29.0,-100.00,SSW,210,31.0,44.0,69,0.00,,,-99.99,,2013-04-07 19:42:00,
2013-04-07 13:53:00,35.0,34.0,-100.00,SW,222,29.0,38.0,96,0.07,,,-99.99,,2013-04-07 19:53:00,
2013-04-07 14:02:00,38.0,33.0,-100.00,SSW,208,29.0,39.0,83,0.00,,,-99.99,,2013-04-07 20:02:00,
2013-04-07 14:13:00,39.0,32.0,-100.00,SSW,210,29.0,39.0,76,0.00,,,-99.99,,2013-04-07 20:13:00,
2013-04-07 14:22:00,41.0,27.0,-100.00,SW,226,30.0,39.0,56,0.00,,,-99.99,,2013-04-07 20:22:00,
2013-04-07 14:32:00,42.0,26.0,-100.00,SW,224,30.0,40.0,51,0.00,,,-99.99,,2013-04-07 20:32:00,
2013-04-07 14:43:00,39.0,30.0,-100.00,SW,224,34.0,44.0,70,0.01,,,-99.99,,2013-04-07 20:43:00,
2013-04-07 14:52:00,41.0,28.0,-100.00,SW,232,27.0,37.0,61,0.00,,,-99.99,,2013-04-07 20:52:00,
2013-04-07 15:03:00,38.0,32.0,-100.00,SW,224,28.0,39.0,77,0.03,,,-99.99,,2013-04-07 21:03:00,
2013-04-07 15:13:00,36.0,33.0,-100.00,SW,216,30.0,39.0,88,0.10,,,-99.99,,2013-04-07 21:13:00,
2013-04-07 15:22:00,36.0,33.0,-100.00,SW,215,22.0,29.0,89,0.00,,,-99.99,,2013-04-07 21:22:00,
2013-04-07 15:34:00,37.0,33.0,-100.00,SW,220,18.0,29.0,82,0.00,,,-99.99,,2013-04-07 21:34:00,
2013-04-07 15:43:00,38.0,31.0,-100.00,SW,219,21.0,27.0,77,0.00,,,-99.99,,2013-04-07 21:43:00,
2013-04-07 15:53:00,39.0,30.0,-100.00,SW,219,26.0,34.0,69,0.00,,,-99.99,,2013-04-07 21:53:00,
2013-04-07 16:03:00,41.0,30.0,-100.00,SW,220,26.0,34.0,64,0.00,,,-99.99,,2013-04-07 22:03:00,
2013-04-07 16:13:00,41.0,27.0,-100.00,SW,220,26.0,35.0,57,0.00,,,-99.99,,2013-04-07 22:13:00,
2013-04-07 16:23:00,41.0,27.0,-100.00,SSW,213,25.0,33.0,58,0.00,,,-99.99,,2013-04-07 22:23:00,
2013-04-07 16:34:00,39.0,29.0,-100.00,SSW,203,26.0,40.0,68,0.00,,,-99.99,,2013-04-07 22:34:00,
2013-04-07 16:43:00,38.0,29.0,-100.00,SSW,213,30.0,45.0,71,0.00,,,-99.99,,2013-04-07 22:43:00,
2013-04-07 16:52:00,38.0,28.0,-100.00,SSW,213,28.0,37.0,67,0.00,,,-99.99,,2013-04-07 22:52:00,
2013-04-07 17:03:00,38.0,29.0,-100.00,SSW,213,25.0,34.0,68,0.00,,,-99.99,,2013-04-07 23:03:00,
2013-04-07 17:12:00,38.0,29.0,-100.00,SSW,213,25.0,33.0,70,0.00,,,-99.99,,2013-04-07 23:12:00,
2013-04-07 17:22:00,39.0,29.0,-100.00,SW,222,21.0,31.0,66,0.00,,,-99.99,,2013-04-07 23:22:00,
2013-04-07 17:32:00,38.0,30.0,-100.00,SW,227,21.0,27.0,70,0.00,,,-99.99,,2013-04-07 23:32:00,
2013-04-07 17:42:00,39.0,30.0,-100.00,SW,223,23.0,30.0,70,0.00,,,-99.99,,2013-04-07 23:42:00,
2013-04-07 17:52:00,38.0,30.0,-100.00,SW,217,22.0,28.0,73,0.00,,,-99.99,,2013-04-07 23:52:00,
2013-04-07 18:02:00,38.0,30.0,-100.00,SW,216,23.0,35.0,72,0.00,,,-99.99,,2013-04-08 00:02:00,
2013-04-07 18:12:00,37.0,31.0,-100.00,SW,216,26.0,35.0,81,0.06,,,-99.99,,2013-04-08 00:12:00,
2013-04-07 18:22:00,38.0,31.0,-100.00,SW,223,17.0,23.0,76,0.00,,,-99.99,,2013-04-08 00:22:00,
2013-04-07 18:32:00,38.0,30.0,-100.00,SW,233,11.0,17.0,73,0.00,,,-99.99,,2013-04-08 00:32:00,
2013-04-07 18:42:00,38.0,29.0,-100.00,SW,226,15.0,23.0,69,0.00,,,-99.99,,2013-04-08 00:42:00,
2013-04-07 18:52:00,38.0,29.0,-100.00,SW,216,18.0,23.0,69,0.00,,,-99.99,,2013-04-08 00:52:00,
2013-04-07 19:02:00,39.0,29.0,-100.00,SW,215,17.0,22.0,69,0.00,,,-99.99,,2013-04-08 01:02:00,
2013-04-07 19:12:00,39.0,29.0,-100.00,SW,216,16.0,22.0,68,0.00,,,-99.99,,2013-04-08 01:12:00,
2013-04-07 19:22:00,39.0,29.0,-100.00,SW,219,14.0,19.0,68,0.00,,,-99.99,,2013-04-08 01:22:00,
2013-04-07 19:33:00,39.0,29.0,-100.00,SW,223,13.0,18.0,68,0.00,,,-99.99,,2013-04-08 01:33:00,
2013-04-07 19:43:00,39.0,29.0,-100.00,SW,215,17.0,26.0,66,0.00,,,-99.99,,2013-04-08 01:43:00,
2013-04-07 19:53:00,39.0,29.0,-100.00,SSW,213,17.0,22.0,65,0.00,,,-99.99,,2013-04-08 01:53:00,
2013-04-07 20:02:00,39.0,29.0,-100.00,SW,216,16.0,22.0,68,0.00,,,-99.99,,2013-04-08 02:02:00,
2013-04-07 20:12:00,39.0,30.0,-100.00,SSW,213,14.0,19.0,70,0.01,,,-99.99,,2013-04-08 02:12:00,
2013-04-07 20:22:00,39.0,30.0,-100.00,SSW,213,15.0,28.0,70,0.00,,,-99.99,,2013-04-08 02:22:00,
2013-04-07 20:33:00,38.0,30.0,-100.00,SW,219,23.0,36.0,73,0.00,,,-99.99,,2013-04-08 02:33:00,
2013-04-07 20:45:00,38.0,29.0,-100.00,SW,222,16.0,21.0,69,0.00,,,-99.99,,2013-04-08 02:45:00,
2013-04-07 20:52:00,38.0,28.0,-100.00,SW,216,14.0,21.0,66,0.00,,,-99.99,,2013-04-08 02:52:00,
2013-04-07 21:07:00,38.0,28.0,-100.00,SW,219,15.0,23.0,66,0.00,,,-99.99,,2013-04-08 03:07:00,
2013-04-07 21:14:00,38.0,28.0,-100.00,SW,222,13.0,21.0,66,0.00,,,-99.99,,2013-04-08 03:14:00,
2013-04-07 21:23:00,38.0,28.0,-100.00,SW,217,15.0,21.0,66,0.00,,,-99.99,,2013-04-08 03:23:00,
2013-04-07 21:33:00,38.0,28.0,-100.00,SW,220,14.0,19.0,66,0.00,,,-99.99,,2013-04-08 03:33:00,
2013-04-07 21:47:00,38.0,31.0,-100.00,SW,224,16.0,23.0,76,0.03,,,-99.99,,2013-04-08 03:47:00,
2013-04-07 21:53:00,34.0,32.0,-100.00,WSW,247,17.0,27.0,92,0.00,,,-99.99,,2013-04-08 03:53:00,
2013-04-07 22:03:00,34.0,32.0,-100.00,WSW,258,14.0,18.0,92,0.00,,,-99.99,,2013-04-08 04:03:00,
2013-04-07 22:12:00,35.0,31.0,-100.00,WSW,248,13.0,22.0,88,0.04,,,-99.99,,2013-04-08 04:12:00,
2013-04-07 22:23:00,34.0,32.0,-100.00,WSW,251,14.0,18.0,90,0.01,,,-99.99,,2013-04-08 04:23:00,
2013-04-07 22:33:00,35.0,31.0,-100.00,WSW,246,16.0,22.0,84,0.00,,,-99.99,,2013-04-08 04:33:00,
2013-04-07 22:43:00,35.0,31.0,-100.00,WSW,248,12.0,17.0,87,0.00,,,-99.99,,2013-04-08 04:43:00,
2013-04-07 22:52:00,35.0,31.0,-100.00,WSW,239,11.0,14.0,87,0.00,,,-99.99,,2013-04-08 04:52:00,
2013-04-07 23:02:00,35.0,31.0,-100.00,SW,220,10.0,14.0,85,0.01,,,-99.99,,2013-04-08 05:02:00,
2013-04-07 23:12:00,36.0,30.0,-100.00,SSW,208,11.0,17.0,80,0.00,,,-99.99,,2013-04-08 05:12:00,
2013-04-07 23:22:00,36.0,30.0,-100.00,SSW,208,11.0,17.0,80,0.00,,,-99.99,,2013-04-08 05:22:00,
2013-04-07 23:32:00,35.0,29.0,-100.00,SSW,198,13.0,17.0,78,0.00,,,-99.99,,2013-04-08 05:32:00,
2013-04-07 23:42:00,35.0,29.0,-100.00,SSW,206,13.0,16.0,76,0.00,,,-99.99,,2013-04-08 05:42:00,
2013-04-07 23:52:00,36.0,28.0,-100.00,SSW,200,13.0,18.0,74,0.00,,,-99.99,,2013-04-08 05:52:00,